createdAt,value
2018-06-08T00:00:14.294Z,1.90
2018-06-08T00:05:17.772Z,2.00
2018-06-08T00:10:21.371Z,1.50
2018-06-08T00:15:24.476Z,1.90
2018-06-08T00:20:27.766Z,2.00
2018-06-08T00:25:30.895Z,2.33
2018-06-08T00:30:34.008Z,1.63
2018-06-08T00:35:37.405Z,2.10
2018-06-08T00:40:40.648Z,2.27
2018-06-08T00:45:43.679Z,1.80
2018-06-08T00:50:46.633Z,2.60
2018-06-08T00:55:49.691Z,2.17
2018-06-08T01:00:52.650Z,2.80
2018-06-08T01:05:56.005Z,2.40
2018-06-08T01:10:59.122Z,2.10
2018-06-08T01:16:02.528Z,2.43
2018-06-08T01:21:05.955Z,2.13
2018-06-08T01:26:09.130Z,2.27
2018-06-08T01:31:11.993Z,2.33
2018-06-08T01:36:15.315Z,2.97
2018-06-08T01:41:19.412Z,2.33
2018-06-08T01:46:23.621Z,2.00
2018-06-08T01:51:27.071Z,2.60
2018-06-08T01:56:30.204Z,2.27
2018-06-08T02:01:33.335Z,2.33
2018-06-08T02:06:36.716Z,2.60
2018-06-08T02:11:39.746Z,4.00
2018-06-08T02:16:43.269Z,6.20
2018-06-08T02:21:46.416Z,3.43
2018-06-08T02:26:49.458Z,5.37
2018-06-08T02:31:53.192Z,5.90
2018-06-08T02:36:56.480Z,2.80
2018-06-08T02:41:59.520Z,3.47
2018-06-08T02:47:02.389Z,2.47
2018-06-08T02:52:05.315Z,2.30
2018-06-08T02:57:08.299Z,1.87
2018-06-08T03:02:11.320Z,2.50
2018-06-08T03:07:15.206Z,2.40
2018-06-08T03:12:19.179Z,2.90
2018-06-08T03:17:22.359Z,2.00
2018-06-08T03:22:25.942Z,3.23
2018-06-08T03:27:29.275Z,3.57
2018-06-08T03:32:32.584Z,2.33
2018-06-08T03:37:35.710Z,2.20
2018-06-08T03:42:38.705Z,2.43
2018-06-08T03:47:41.718Z,4.27
2018-06-08T03:52:45.222Z,2.60
2018-06-08T03:57:48.285Z,2.57
2018-06-08T04:02:51.225Z,4.47
2018-06-08T04:07:54.998Z,4.20
2018-06-08T04:12:57.905Z,6.27
2018-06-08T04:18:01.083Z,7.83
2018-06-08T04:23:04.309Z,7.23
2018-06-08T04:28:07.399Z,5.53
2018-06-08T04:33:10.353Z,2.70
2018-06-08T04:38:13.805Z,5.40
2018-06-08T04:43:16.757Z,5.97
2018-06-08T04:48:34.095Z,7.27
2018-06-08T04:53:38.243Z,4.40
2018-06-08T04:58:41.409Z,6.20
2018-06-08T05:03:44.465Z,6.20
2018-06-08T05:08:47.445Z,5.70
2018-06-08T05:13:50.294Z,3.30
2018-06-08T05:18:53.464Z,6.90
2018-06-08T05:23:56.660Z,7.30
2018-06-08T05:28:59.936Z,6.80
2018-06-08T05:34:02.800Z,6.33
2018-06-08T05:39:08.367Z,7.30
2018-06-08T05:44:11.220Z,5.67
2018-06-08T05:49:14.105Z,3.53
2018-06-08T05:54:17.040Z,5.63
2018-06-08T05:59:20.234Z,4.40
2018-06-08T06:04:23.072Z,2.80
2018-06-08T06:09:26.508Z,3.23
2018-06-08T06:14:29.339Z,2.90
2018-06-08T06:19:40.949Z,2.20
2018-06-08T06:24:46.616Z,2.83
2018-06-08T06:29:56.237Z,2.50
2018-06-08T06:35:00.707Z,2.80
2018-06-08T06:40:03.956Z,2.40
2018-06-08T06:45:06.824Z,2.00
2018-06-08T06:50:09.785Z,2.73
2018-06-08T06:55:22.103Z,2.30
2018-06-08T07:00:25.690Z,3.13
2018-06-08T07:05:28.805Z,2.40
2018-06-08T07:10:31.970Z,2.70
2018-06-08T07:15:35.115Z,3.20
2018-06-08T07:20:38.097Z,2.40
2018-06-08T07:25:40.972Z,3.10
2018-06-08T07:30:43.876Z,2.87
2018-06-08T07:35:47.109Z,3.07
2018-06-08T07:40:52.973Z,2.80
2018-06-08T07:45:56.659Z,2.10
2018-06-08T07:50:59.993Z,2.37
2018-06-08T07:56:02.969Z,3.83
2018-06-08T08:01:05.907Z,2.43
2018-06-08T08:06:08.761Z,2.40
2018-06-08T08:11:11.985Z,2.43
2018-06-08T08:16:14.905Z,2.60
2018-06-08T08:21:17.784Z,2.20
2018-06-08T08:26:20.713Z,2.20
2018-06-08T08:31:23.553Z,2.10
2018-06-08T08:36:26.458Z,1.83
2018-06-08T08:41:29.681Z,2.20
2018-06-08T08:46:32.595Z,2.20
2018-06-08T08:51:35.499Z,2.00
2018-06-08T08:56:38.419Z,1.70
2018-06-08T09:01:41.378Z,2.20
2018-06-08T09:06:44.265Z,2.83
2018-06-08T09:11:47.665Z,2.33
2018-06-08T09:16:50.550Z,3.10
2018-06-08T09:21:53.416Z,2.97
2018-06-08T09:26:56.289Z,2.50
2018-06-08T09:31:59.162Z,2.43
2018-06-08T09:37:02.013Z,2.93
2018-06-08T09:42:05.732Z,2.50
2018-06-08T09:47:08.643Z,2.37
2018-06-08T09:52:11.514Z,2.60
2018-06-08T09:57:14.461Z,2.33
2018-06-08T10:02:17.344Z,2.63
2018-06-08T10:07:20.180Z,2.93
2018-06-08T10:12:23.706Z,2.70
2018-06-08T10:17:26.547Z,2.40
2018-06-08T10:22:29.409Z,2.30
2018-06-08T10:27:32.406Z,2.67
2018-06-08T10:32:35.298Z,2.20
2018-06-08T10:37:38.129Z,2.33
2018-06-08T10:42:41.101Z,3.20
2018-06-08T10:47:44.246Z,3.10
2018-06-08T10:52:47.126Z,3.33
2018-06-08T10:57:54.647Z,2.83
2018-06-08T11:03:02.704Z,2.20
2018-06-08T11:08:05.903Z,2.23
2018-06-08T11:13:10.221Z,2.20
2018-06-08T11:18:14.136Z,2.50
2018-06-08T11:23:17.921Z,3.00
2018-06-08T11:28:27.283Z,2.43
2018-06-08T11:33:41.552Z,3.47
2018-06-08T11:38:45.310Z,3.10
2018-06-08T11:43:48.437Z,2.67
2018-06-08T11:48:51.435Z,3.47
2018-06-08T11:53:54.674Z,3.37
2018-06-08T11:58:57.564Z,3.63
2018-06-08T12:04:00.775Z,3.30
2018-06-08T12:09:05.517Z,3.60
2018-06-08T12:14:09.168Z,3.00
2018-06-08T12:19:12.115Z,3.60
2018-06-08T12:24:15.049Z,3.70
2018-06-08T12:29:17.996Z,2.63
2018-06-08T12:34:21.288Z,2.73
2018-06-08T12:39:24.604Z,2.30
2018-06-08T12:44:27.511Z,3.50
2018-06-08T12:49:30.376Z,2.43
2018-06-08T12:54:33.298Z,3.20
2018-06-08T12:59:36.459Z,3.23
2018-06-08T13:04:39.632Z,2.70
2018-06-08T13:09:42.514Z,3.27
2018-06-08T13:14:45.628Z,3.80
2018-06-08T13:19:48.523Z,3.70
2018-06-08T13:24:51.385Z,3.37
2018-06-08T13:29:54.402Z,3.80
2018-06-08T13:34:57.651Z,3.17
2018-06-08T13:40:00.513Z,3.57
2018-06-08T13:45:03.719Z,2.90
2018-06-08T13:50:06.611Z,2.63
2018-06-08T13:55:09.556Z,3.00
2018-06-08T14:00:12.919Z,3.10
2018-06-08T14:05:15.801Z,3.33
2018-06-08T14:10:18.711Z,2.60
2018-06-08T14:15:21.722Z,2.33
2018-06-08T14:20:24.596Z,2.53
2018-06-08T14:25:27.495Z,3.20
2018-06-08T14:30:30.412Z,3.47
2018-06-08T14:35:33.349Z,2.67
2018-06-08T14:40:36.594Z,3.07
2018-06-08T14:45:39.509Z,2.80
2018-06-08T14:50:42.437Z,2.90
2018-06-08T14:55:45.303Z,3.50
2018-06-08T15:00:48.267Z,3.60
2018-06-08T15:05:51.297Z,3.07
2018-06-08T15:10:54.515Z,3.80
2018-06-08T15:15:57.958Z,3.10
2018-06-08T15:21:00.841Z,2.80
2018-06-08T15:26:03.854Z,2.50
2018-06-08T15:31:06.841Z,3.03
2018-06-08T15:36:09.792Z,3.10
2018-06-08T15:41:13.516Z,3.07
2018-06-08T15:46:24.742Z,3.03
2018-06-08T15:51:28.233Z,3.10
2018-06-08T15:56:31.121Z,2.70
2018-06-08T16:01:34.022Z,3.13
2018-06-08T16:06:38.052Z,2.87
2018-06-08T16:11:41.282Z,3.17
2018-06-08T16:16:44.345Z,2.80
2018-06-08T16:21:47.237Z,2.00
2018-06-08T16:26:50.463Z,2.97
2018-06-08T16:31:53.363Z,2.60
2018-06-08T16:36:56.408Z,2.70
2018-06-08T16:41:59.335Z,2.47
2018-06-08T16:47:03.014Z,2.70
2018-06-08T16:52:05.940Z,3.50
2018-06-08T16:57:08.856Z,2.70
2018-06-08T17:02:15.246Z,2.30
2018-06-08T17:07:18.159Z,2.30
2018-06-08T17:12:21.348Z,2.20
2018-06-08T17:17:24.659Z,2.20
2018-06-08T17:22:27.530Z,2.90
2018-06-08T17:27:33.527Z,2.70
2018-06-08T17:32:41.110Z,1.97
2018-06-08T17:37:44.404Z,2.33
2018-06-08T17:42:47.577Z,2.70
2018-06-08T17:47:50.849Z,2.00
2018-06-08T17:52:53.838Z,2.53
2018-06-08T17:57:56.799Z,2.07
2018-06-08T18:02:59.758Z,2.30
2018-06-08T18:08:02.698Z,1.90
2018-06-08T18:13:05.608Z,2.73
2018-06-08T18:18:09.161Z,2.10
2018-06-08T18:23:12.061Z,2.27
2018-06-08T18:28:14.953Z,3.13
2018-06-08T18:33:17.921Z,2.47
2018-06-08T18:38:20.866Z,2.10
2018-06-08T18:43:23.842Z,2.30
2018-06-08T18:48:27.242Z,2.50
2018-06-08T18:53:30.445Z,2.50
2018-06-08T18:58:33.575Z,2.73
2018-06-08T19:03:36.964Z,2.57
2018-06-08T19:08:40.299Z,2.40
2018-06-08T19:13:43.430Z,2.67
2018-06-08T19:18:46.683Z,2.70
2018-06-08T19:23:50.072Z,2.57
2018-06-08T19:28:53.239Z,1.93
2018-06-08T19:33:56.284Z,2.70
2018-06-08T19:38:59.299Z,2.60
2018-06-08T19:44:02.313Z,2.40
2018-06-08T19:49:05.327Z,2.93
2018-06-08T19:54:08.552Z,2.90
2018-06-08T19:59:11.454Z,2.57
2018-06-08T20:04:14.481Z,3.30
2018-06-08T20:09:17.364Z,3.60
2018-06-08T20:14:20.281Z,3.77
2018-06-08T20:19:23.494Z,3.67
2018-06-08T20:24:26.690Z,3.90
2018-06-08T20:29:29.573Z,3.90
2018-06-08T20:34:32.824Z,3.33
2018-06-08T20:39:35.680Z,4.20
2018-06-08T20:44:38.580Z,3.53
2018-06-08T20:49:41.487Z,3.40
2018-06-08T20:54:44.461Z,3.90
2018-06-08T20:59:47.370Z,3.37
2018-06-08T21:04:50.321Z,4.20
2018-06-08T21:09:53.564Z,5.00
2018-06-08T21:14:56.445Z,4.53
2018-06-08T21:19:59.714Z,5.47
2018-06-08T21:25:02.640Z,5.00
2018-06-08T21:30:05.800Z,4.97
2018-06-08T21:35:09.138Z,4.27
2018-06-08T21:40:12.266Z,3.63
2018-06-08T21:45:15.171Z,3.53
2018-06-08T21:50:18.173Z,2.90
2018-06-08T21:55:21.067Z,3.43
2018-06-08T22:00:24.382Z,4.53
2018-06-08T22:05:27.463Z,5.60
2018-06-08T22:10:30.655Z,4.77
2018-06-08T22:15:33.561Z,4.20
2018-06-08T22:20:36.499Z,6.47
2018-06-08T22:25:43.520Z,6.87
2018-06-08T22:30:50.001Z,5.70
2018-06-08T22:35:53.020Z,5.60
2018-06-08T22:40:56.304Z,4.90
2018-06-08T22:45:59.348Z,5.63
2018-06-08T22:51:02.283Z,6.83
2018-06-08T22:56:05.436Z,6.30
2018-06-08T23:01:08.325Z,6.63
2018-06-08T23:06:11.959Z,7.17
2018-06-08T23:11:15.274Z,8.93
2018-06-08T23:16:19.617Z,7.47
2018-06-08T23:21:23.023Z,4.33
2018-06-08T23:26:26.288Z,4.57
2018-06-08T23:31:29.243Z,4.40
2018-06-08T23:36:32.546Z,4.50
2018-06-08T23:41:36.055Z,3.90
2018-06-08T23:46:39.712Z,3.40
2018-06-08T23:51:42.892Z,5.47
2018-06-08T23:56:46.199Z,4.67
